createdAt,value
2023-04-05T00:00:24.612Z,8.722
2023-04-05T00:01:26.307Z,8.733
2023-04-05T00:02:22.477Z,8.694
2023-04-05T00:03:22.961Z,8.699
2023-04-05T00:04:22.999Z,8.677
2023-04-05T00:05:23.265Z,8.678
2023-04-05T00:06:23.355Z,8.649
2023-04-05T00:07:23.457Z,8.649
2023-04-05T00:08:23.013Z,8.631
2023-04-05T00:09:23.512Z,8.620
2023-04-05T00:10:23.785Z,8.614
2023-04-05T00:11:23.006Z,8.585
2023-04-05T00:12:23.021Z,8.560
2023-04-05T00:13:22.960Z,8.539
2023-04-05T00:14:22.606Z,8.524
2023-04-05T00:15:23.591Z,8.505
2023-04-05T00:16:23.646Z,8.520
2023-04-05T00:17:23.514Z,8.489
2023-04-05T00:18:23.523Z,8.470
2023-04-05T00:19:23.122Z,8.449
2023-04-05T00:20:23.263Z,8.399
2023-04-05T00:21:23.539Z,8.362
2023-04-05T00:22:22.675Z,8.350
2023-04-05T00:23:23.405Z,8.300
2023-04-05T00:24:23.086Z,8.300
2023-04-05T00:25:23.210Z,8.284
2023-04-05T00:26:23.024Z,8.255
2023-04-05T00:27:23.228Z,8.25
2023-04-05T00:28:23.007Z,8.244
2023-04-05T00:29:22.956Z,8.229
2023-04-05T00:30:23.104Z,8.229
2023-04-05T00:31:23.103Z,8.229
2023-04-05T00:32:23.166Z,8.215
2023-04-05T00:33:23.040Z,8.194
2023-04-05T00:34:23.484Z,8.178
2023-04-05T00:35:23.358Z,8.154
2023-04-05T00:36:23.324Z,8.095
2023-04-05T00:37:22.958Z,8.100
2023-04-05T00:38:23.119Z,8.095
2023-04-05T00:39:23.437Z,8.074
2023-04-05T00:40:24.039Z,8.079
2023-04-05T00:41:23.083Z,8.064
2023-04-05T00:42:23.088Z,8.050
2023-04-05T00:43:22.889Z,8.029
2023-04-05T00:44:22.517Z,8.010
2023-04-05T00:45:23.617Z,8
2023-04-05T00:46:23.691Z,7.989
2023-04-05T00:47:23.480Z,7.954
2023-04-05T00:48:22.882Z,7.934
2023-04-05T00:49:22.837Z,7.903
2023-04-05T00:50:23.672Z,7.883
2023-04-05T00:51:23.372Z,7.855
2023-04-05T00:52:23.309Z,7.868
2023-04-05T00:53:23.079Z,7.879
2023-04-05T00:54:22.803Z,7.855
2023-04-05T00:55:23.003Z,7.833
2023-04-05T00:56:23.529Z,7.839
2023-04-05T00:57:23.281Z,7.833
2023-04-05T00:58:23.421Z,7.849
2023-04-05T00:59:22.913Z,7.861
2023-04-05T01:00:23.607Z,7.839
2023-04-05T01:01:23.168Z,7.815
2023-04-05T01:02:22.874Z,7.815
2023-04-05T01:03:23.274Z,7.800
2023-04-05T01:04:22.858Z,7.800
2023-04-05T01:05:22.976Z,7.789
2023-04-05T01:06:22.617Z,7.784
2023-04-05T01:07:23.056Z,7.804
2023-04-05T01:08:22.991Z,7.835
2023-04-05T01:09:22.830Z,7.830
2023-04-05T01:10:23.182Z,7.849
2023-04-05T01:11:24.173Z,7.853
2023-04-05T01:12:23.086Z,7.873
2023-04-05T01:13:23.283Z,7.854
2023-04-05T01:14:23.064Z,7.873
2023-04-05T01:15:23.877Z,7.868
2023-04-05T01:16:23.335Z,7.854
2023-04-05T01:17:23.108Z,7.868
2023-04-05T01:18:23.057Z,7.857
2023-04-05T01:19:23.002Z,7.848
2023-04-05T01:20:23.225Z,7.839
2023-04-05T01:21:23.511Z,7.827
2023-04-05T01:22:23.194Z,7.804
2023-04-05T01:23:22.821Z,7.828
2023-04-05T01:24:23.265Z,7.821
2023-04-05T01:25:23.390Z,7.827
2023-04-05T01:26:23.047Z,7.809
2023-04-05T01:27:22.998Z,7.821
2023-04-05T01:28:23.097Z,7.827
2023-04-05T01:29:23.104Z,7.849
2023-04-05T01:30:23.659Z,7.821
2023-04-05T01:31:23.025Z,7.849
2023-04-05T01:32:22.822Z,7.874
2023-04-05T01:33:22.820Z,7.874
2023-04-05T01:34:22.720Z,7.879
2023-04-05T01:35:23.581Z,7.900
2023-04-05T01:36:23.314Z,7.905
2023-04-05T01:37:23.209Z,7.894
2023-04-05T01:38:22.836Z,7.905
2023-04-05T01:39:23.533Z,7.905
2023-04-05T01:40:23.308Z,7.909
2023-04-05T01:41:22.935Z,7.909
2023-04-05T01:42:23.097Z,7.929
2023-04-05T01:43:22.758Z,7.940
2023-04-05T01:44:22.649Z,7.945
2023-04-05T01:45:23.846Z,7.954
2023-04-05T01:46:23.142Z,7.949
2023-04-05T01:47:22.985Z,7.954
2023-04-05T01:48:23.221Z,7.965
2023-04-05T01:49:22.966Z,7.980
2023-04-05T01:50:23.372Z,7.974
2023-04-05T01:51:23.004Z,7.965
2023-04-05T01:52:23.031Z,7.980
2023-04-05T01:53:22.721Z,7.974
2023-04-05T01:54:22.986Z,7.954
2023-04-05T01:55:22.975Z,7.965
2023-04-05T01:56:22.730Z,7.960
2023-04-05T01:57:22.433Z,7.960
2023-04-05T01:58:23.130Z,7.949
2023-04-05T01:59:23.403Z,7.934
2023-04-05T02:00:24.188Z,7.940
2023-04-05T02:01:23.154Z,7.945
2023-04-05T02:02:23.121Z,7.954
2023-04-05T02:03:22.834Z,7.960
2023-04-05T02:04:22.980Z,7.969
2023-04-05T02:05:23.186Z,7.954
2023-04-05T02:06:23.795Z,7.945
2023-04-05T02:07:23.040Z,7.969
2023-04-05T02:08:23.441Z,7.965
2023-04-05T02:09:23.318Z,7.945
2023-04-05T02:10:23.411Z,7.960
2023-04-05T02:11:23.097Z,7.980
2023-04-05T02:12:23.189Z,7.974
2023-04-05T02:13:22.671Z,7.980
2023-04-05T02:14:23.168Z,7.985
2023-04-05T02:15:23.483Z,7.989
2023-04-05T02:16:23.497Z,7.965
2023-04-05T02:17:23.351Z,7.954
2023-04-05T02:18:22.999Z,7.940
2023-04-05T02:19:22.991Z,7.900
2023-04-05T02:20:23.553Z,7.905
2023-04-05T02:21:22.879Z,7.909
2023-04-05T02:22:23.089Z,7.907
2023-04-05T02:23:23.048Z,7.898
2023-04-05T02:24:22.398Z,7.889
2023-04-05T02:25:22.867Z,7.890
2023-04-05T02:26:23.047Z,7.893
2023-04-05T02:27:23.242Z,7.925
2023-04-05T02:28:23.104Z,7.901
2023-04-05T02:29:23.177Z,7.926
2023-04-05T02:30:23.337Z,7.934
2023-04-05T02:31:23.022Z,7.934
2023-04-05T02:32:23.608Z,7.915
2023-04-05T02:33:22.775Z,7.928
2023-04-05T02:34:22.413Z,7.945
2023-04-05T02:35:23.031Z,7.935
2023-04-05T02:36:22.627Z,7.945
2023-04-05T02:37:23.136Z,7.940
2023-04-05T02:38:22.436Z,7.954
2023-04-05T02:39:23.243Z,7.945
2023-04-05T02:40:23.569Z,7.949
2023-04-05T02:41:23.207Z,7.980
2023-04-05T02:42:23.039Z,7.949
2023-04-05T02:43:22.958Z,7.980
2023-04-05T02:44:22.815Z,7.969
2023-04-05T02:45:23.693Z,7.949
2023-04-05T02:46:22.985Z,7.960
2023-04-05T02:47:23.529Z,7.974
2023-04-05T02:48:23.218Z,7.965
2023-04-05T02:49:22.672Z,7.960
2023-04-05T02:50:23.508Z,7.945
2023-04-05T02:51:23.081Z,7.934
2023-04-05T02:52:23.170Z,7.920
2023-04-05T02:53:23.011Z,7.908
2023-04-05T02:54:23.236Z,7.934
2023-04-05T02:55:23.389Z,7.914
2023-04-05T02:56:23.155Z,7.925
2023-04-05T02:57:23.260Z,7.925
2023-04-05T02:58:23.527Z,7.900
2023-04-05T02:59:22.865Z,7.909
2023-04-05T03:00:24.051Z,7.909
2023-04-05T03:01:23.234Z,7.900
2023-04-05T03:02:23.524Z,7.914
2023-04-05T03:03:23.546Z,7.909
2023-04-05T03:04:22.917Z,7.925
2023-04-05T03:05:23.358Z,7.900
2023-04-05T03:06:23.214Z,7.889
2023-04-05T03:07:22.866Z,7.889
2023-04-05T03:08:22.998Z,7.894
2023-04-05T03:09:23.598Z,7.874
2023-04-05T03:10:23.626Z,7.855
2023-04-05T03:11:22.975Z,7.868
2023-04-05T03:12:23.278Z,7.873
2023-04-05T03:13:23.335Z,7.849
2023-04-05T03:14:23.365Z,7.868
2023-04-05T03:15:22.935Z,7.888
2023-04-05T03:16:23.984Z,7.889
2023-04-05T03:17:22.980Z,7.874
2023-04-05T03:18:23.240Z,7.873
2023-04-05T03:19:23.076Z,7.844
2023-04-05T03:20:23.244Z,7.815
2023-04-05T03:21:23.362Z,7.809
2023-04-05T03:22:23.252Z,7.815
2023-04-05T03:23:23.345Z,7.810
2023-04-05T03:24:23.672Z,7.769
2023-04-05T03:25:23.439Z,7.75
2023-04-05T03:26:23.076Z,7.755
2023-04-05T03:27:22.786Z,7.724
2023-04-05T03:28:22.804Z,7.744
2023-04-05T03:29:23.258Z,7.719
2023-04-05T03:30:23.220Z,7.719
2023-04-05T03:31:22.949Z,7.695
2023-04-05T03:32:23.271Z,7.695
2023-04-05T03:33:23.415Z,7.671
2023-04-05T03:34:23.035Z,7.665
2023-04-05T03:35:22.461Z,7.649
2023-04-05T03:36:23.430Z,7.631
2023-04-05T03:37:22.961Z,7.637
2023-04-05T03:38:23.137Z,7.610
2023-04-05T03:39:23.126Z,7.594
2023-04-05T03:40:23.306Z,7.592
2023-04-05T03:41:23.075Z,7.570
2023-04-05T03:42:23.239Z,7.550
2023-04-05T03:43:23.063Z,7.532
2023-04-05T03:44:23.174Z,7.518
2023-04-05T03:45:24.691Z,7.489
2023-04-05T03:46:23.555Z,7.505
2023-04-05T03:47:23.340Z,7.475
2023-04-05T03:48:23.043Z,7.434
2023-04-05T03:49:22.641Z,7.434
2023-04-05T03:50:23.492Z,7.389
2023-04-05T03:51:23.358Z,7.389
2023-04-05T03:52:23.261Z,7.373
2023-04-05T03:53:23.045Z,7.344
2023-04-05T03:54:23.236Z,7.300
2023-04-05T03:55:23.537Z,7.304
2023-04-05T03:56:23.598Z,7.284
2023-04-05T03:57:22.982Z,7.260
2023-04-05T03:58:22.764Z,7.239
2023-04-05T03:59:22.916Z,7.230
2023-04-05T04:00:24.367Z,7.215
2023-04-05T04:01:23.318Z,7.183
2023-04-05T04:02:23.232Z,7.178
2023-04-05T04:03:23.249Z,7.178
2023-04-05T04:04:23.218Z,7.131
2023-04-05T04:05:23.350Z,7.090
2023-04-05T04:06:23.273Z,7.059
2023-04-05T04:07:23.117Z,7.034
2023-04-05T04:08:22.719Z,7.005
2023-04-05T04:09:22.786Z,6.989
2023-04-05T04:10:23.750Z,6.954
2023-04-05T04:11:23.091Z,6.905
2023-04-05T04:12:23.685Z,6.877
2023-04-05T04:13:23.742Z,6.861
2023-04-05T04:14:23.044Z,6.821
2023-04-05T04:15:23.293Z,6.804
2023-04-05T04:16:23.697Z,6.821
2023-04-05T04:17:22.918Z,6.800
2023-04-05T04:18:23.258Z,6.789
2023-04-05T04:19:23.221Z,6.784
2023-04-05T04:20:23.346Z,6.780
2023-04-05T04:21:23.506Z,6.780
2023-04-05T04:22:23.366Z,6.760
2023-04-05T04:23:23.339Z,6.735
2023-04-05T04:24:23.254Z,6.730
2023-04-05T04:25:23.419Z,6.744
2023-04-05T04:26:22.913Z,6.695
2023-04-05T04:27:23.058Z,6.699
2023-04-05T04:28:22.911Z,6.695
2023-04-05T04:29:23.226Z,6.678
2023-04-05T04:30:23.683Z,6.677
2023-04-05T04:31:23.720Z,6.698
2023-04-05T04:32:23.498Z,6.677
2023-04-05T04:33:23.187Z,6.626
2023-04-05T04:34:23.239Z,6.590
2023-04-05T04:35:23.465Z,6.565
2023-04-05T04:36:23.506Z,6.550
2023-04-05T04:37:23.228Z,6.539
2023-04-05T04:38:23.031Z,6.545
2023-04-05T04:39:23.296Z,6.539
2023-04-05T04:40:23.200Z,6.539
2023-04-05T04:41:23.977Z,6.519
2023-04-05T04:42:23.342Z,6.534
2023-04-05T04:43:23.581Z,6.519
2023-04-05T04:44:23.005Z,6.505
2023-04-05T04:45:23.220Z,6.505
2023-04-05T04:46:23.668Z,6.489
2023-04-05T04:47:23.661Z,6.480
2023-04-05T04:48:22.996Z,6.485
2023-04-05T04:49:23.214Z,6.474
2023-04-05T04:50:23.594Z,6.485
2023-04-05T04:51:23.554Z,6.5
2023-04-05T04:52:23.731Z,6.480
2023-04-05T04:53:24.430Z,6.480
2023-04-05T04:54:23.862Z,6.465
2023-04-05T04:55:23.364Z,6.469
2023-04-05T04:56:23.682Z,6.449
2023-04-05T04:57:23.374Z,6.445
2023-04-05T04:58:23.412Z,6.429
2023-04-05T04:59:23.386Z,6.405
2023-04-05T05:00:24.577Z,6.414
2023-04-05T05:02:27.159Z,6.394
2023-04-05T05:03:23.557Z,6.384
2023-04-05T05:04:23.525Z,6.385
2023-04-05T05:05:23.775Z,6.388
2023-04-05T05:06:23.062Z,6.374
2023-04-05T05:08:28.030Z,6.384
2023-04-05T05:09:22.896Z,6.396
2023-04-05T05:10:23.333Z,6.374
2023-04-05T05:11:23.414Z,6.349
2023-04-05T05:12:24.048Z,6.355
2023-04-05T05:13:23.058Z,6.355
2023-04-05T05:14:23.236Z,6.389
2023-04-05T05:15:23.868Z,6.374
2023-04-05T05:16:23.142Z,6.394
2023-04-05T05:17:23.373Z,6.385
2023-04-05T05:18:23.488Z,6.400
2023-04-05T05:19:23.984Z,6.405
2023-04-05T05:20:23.804Z,6.389
2023-04-05T05:21:23.191Z,6.400
2023-04-05T05:22:23.421Z,6.388
2023-04-05T05:23:23.335Z,6.380
2023-04-05T05:24:23.774Z,6.389
2023-04-05T05:25:23.593Z,6.383
2023-04-05T05:26:24.322Z,6.333
2023-04-05T05:27:23.929Z,6.315
2023-04-05T05:28:23.450Z,6.316
2023-04-05T05:29:22.882Z,6.304
2023-04-05T05:30:23.883Z,6.310
2023-04-05T05:31:23.253Z,6.349
2023-04-05T05:32:23.800Z,6.333
2023-04-05T05:33:22.604Z,6.321
2023-04-05T05:34:23.173Z,6.315
2023-04-05T05:35:23.202Z,6.327
2023-04-05T05:36:23.808Z,6.321
2023-04-05T05:37:22.849Z,6.322
2023-04-05T05:38:23.511Z,6.327
2023-04-05T05:39:23.526Z,6.321
2023-04-05T05:40:23.800Z,6.344
2023-04-05T05:41:23.562Z,6.339
2023-04-05T05:42:23.600Z,6.374
2023-04-05T05:43:23.188Z,6.368
2023-04-05T05:44:23.444Z,6.374
2023-04-05T05:45:23.684Z,6.383
2023-04-05T05:46:23.398Z,6.400
2023-04-05T05:47:24.008Z,6.389
2023-04-05T05:48:23.291Z,6.349
2023-04-05T05:49:23.722Z,6.339
2023-04-05T05:50:23.651Z,6.337
2023-04-05T05:51:23.334Z,6.379
2023-04-05T05:52:23.470Z,6.367
2023-04-05T05:53:23.412Z,6.425
2023-04-05T05:54:23.984Z,6.440
2023-04-05T05:55:23.444Z,6.460
2023-04-05T05:56:23.792Z,6.489
2023-04-05T05:57:23.341Z,6.514
2023-04-05T05:58:23.515Z,6.594
2023-04-05T05:59:23.297Z,6.656
2023-04-05T06:00:24.467Z,6.744
2023-04-05T06:01:23.444Z,6.827
2023-04-05T06:02:23.382Z,6.914
2023-04-05T06:03:23.516Z,6.940
2023-04-05T06:04:23.300Z,6.989
2023-04-05T06:05:23.810Z,7.039
2023-04-05T06:06:23.298Z,7.085
2023-04-05T06:07:23.135Z,7.170
2023-04-05T06:08:23.590Z,7.296
2023-04-05T06:09:24.031Z,7.449
2023-04-05T06:10:23.119Z,7.586
2023-04-05T06:11:23.285Z,7.732
2023-04-05T06:12:23.518Z,7.849
2023-04-05T06:13:23.753Z,7.980
2023-04-05T06:14:23.175Z,8.090
2023-04-05T06:15:23.438Z,8.208
2023-04-05T06:16:23.144Z,8.335
2023-04-05T06:17:23.971Z,8.453
2023-04-05T06:18:23.347Z,8.595
2023-04-05T06:19:23.380Z,8.722
2023-04-05T06:20:23.790Z,8.861
2023-04-05T06:21:23.892Z,8.994
2023-04-05T06:22:23.075Z,9.048
2023-04-05T06:23:23.494Z,9.083
2023-04-05T06:24:23.489Z,9.103
2023-04-05T06:25:24.420Z,9.126
2023-04-05T06:26:23.839Z,9.152
2023-04-05T06:27:23.627Z,9.157
2023-04-05T06:28:23.058Z,9.189
2023-04-05T06:29:23.152Z,9.175
2023-04-05T06:30:24.031Z,9.142
2023-04-05T06:31:23.776Z,9.137
2023-04-05T06:32:23.125Z,9.131
2023-04-05T06:33:23.045Z,9.109
2023-04-05T06:34:28.241Z,9.100
2023-04-05T06:35:23.594Z,9.126
2023-04-05T06:36:25.036Z,9.114
2023-04-05T06:37:23.497Z,9.125
2023-04-05T06:38:23.730Z,9.114
2023-04-05T06:39:23.430Z,9.114
2023-04-05T06:40:31.819Z,9.104
2023-04-05T06:41:23.347Z,9.114
2023-04-05T06:42:23.012Z,9.119
2023-04-05T06:43:22.956Z,9.120
2023-04-05T06:44:23.499Z,9.142
2023-04-05T06:45:23.810Z,9.142
2023-04-05T06:46:24.010Z,9.149
2023-04-05T06:47:24.371Z,9.178
2023-04-05T06:48:23.231Z,9.184
2023-04-05T06:49:23.497Z,9.182
2023-04-05T06:50:24.069Z,9.210
2023-04-05T06:51:22.944Z,9.234
2023-04-05T06:52:23.209Z,9.239
2023-04-05T06:53:23.135Z,9.265
2023-04-05T06:54:23.616Z,9.255
2023-04-05T06:55:23.412Z,9.255
2023-04-05T06:56:23.205Z,9.270
2023-04-05T06:57:23.236Z,9.274
2023-04-05T06:58:37.006Z,9.315
2023-04-05T06:59:23.427Z,9.310
2023-04-05T07:00:24.489Z,9.338
2023-04-05T07:01:23.380Z,9.362
2023-04-05T07:02:23.557Z,9.388
2023-04-05T07:03:23.451Z,9.425
2023-04-05T07:04:23.649Z,9.425
2023-04-05T07:05:24.042Z,9.460
2023-04-05T07:06:23.030Z,9.470
2023-04-05T07:07:23.715Z,9.454
2023-04-05T07:08:23.619Z,9.489
2023-04-05T07:09:23.505Z,9.550
2023-04-05T07:10:23.984Z,9.569
2023-04-05T07:11:23.440Z,9.604
2023-04-05T07:12:23.729Z,9.600
2023-04-05T07:13:23.327Z,9.631
2023-04-05T07:14:23.942Z,9.687
2023-04-05T07:15:23.870Z,9.725
2023-04-05T07:16:23.921Z,9.770
2023-04-05T07:17:23.401Z,9.833
2023-04-05T07:18:23.820Z,9.883
2023-04-05T07:19:23.968Z,9.949
2023-04-05T07:21:27.038Z,10.09
2023-04-05T07:22:23.620Z,10.14
2023-04-05T07:23:23.690Z,10.19
2023-04-05T07:25:26.948Z,10.30
2023-04-05T07:26:23.023Z,10.39
2023-04-05T07:27:23.458Z,10.43
2023-04-05T07:28:23.599Z,10.5
2023-04-05T07:29:23.431Z,10.53
2023-04-05T07:30:24.129Z,10.62
2023-04-05T07:31:23.699Z,10.68
2023-04-05T07:32:23.509Z,10.75
2023-04-05T07:33:23.819Z,10.80
2023-04-05T07:34:23.615Z,10.86
2023-04-05T07:35:23.106Z,10.93
2023-04-05T07:36:23.367Z,11
2023-04-05T07:37:22.751Z,11.04
2023-04-05T07:38:23.260Z,11.13
2023-04-05T07:39:23.383Z,11.18
2023-04-05T07:40:24.011Z,11.23
2023-04-05T07:41:23.198Z,11.27
2023-04-05T07:42:23.613Z,11.34
2023-04-05T07:43:22.739Z,11.41
2023-04-05T07:44:23.029Z,11.46
2023-04-05T07:45:23.317Z,11.53
2023-04-05T07:46:23.840Z,11.60
2023-04-05T07:47:23.467Z,11.60
2023-04-05T07:48:23.461Z,11.61
2023-04-05T07:49:23.479Z,11.63
2023-04-05T07:50:23.516Z,11.68
2023-04-05T07:51:23.319Z,11.63
2023-04-05T07:52:23.633Z,11.63
2023-04-05T07:53:22.105Z,11.67
2023-04-05T07:54:23.375Z,11.66
2023-04-05T07:55:23.796Z,11.69
2023-04-05T07:56:23.310Z,11.71
2023-04-05T07:57:23.569Z,11.77
2023-04-05T07:58:22.847Z,11.88
2023-04-05T07:59:23.068Z,11.92
2023-04-05T08:00:23.907Z,11.89
2023-04-05T08:01:23.671Z,11.90
2023-04-05T08:02:22.983Z,11.95
2023-04-05T08:03:23.141Z,11.95
2023-04-05T08:04:23.540Z,11.97
2023-04-05T08:05:23.135Z,12.02
2023-04-05T08:06:23.399Z,12.08
2023-04-05T08:07:22.980Z,12.22
2023-04-05T08:08:23.462Z,12.22
2023-04-05T08:09:23.291Z,12.25
2023-04-05T08:10:23.302Z,12.33
2023-04-05T08:11:23.060Z,12.42
2023-04-05T08:12:23.697Z,12.46
2023-04-05T08:13:23.505Z,12.46
2023-04-05T08:14:23.501Z,12.51
2023-04-05T08:15:24.106Z,12.57
2023-04-05T08:16:23.440Z,12.59
2023-04-05T08:17:23.356Z,12.56
2023-04-05T08:18:22.693Z,12.60
2023-04-05T08:19:23.466Z,12.64
2023-04-05T08:20:22.729Z,12.62
2023-04-05T08:21:23.117Z,12.62
2023-04-05T08:22:23.339Z,12.62
2023-04-05T08:23:23.714Z,12.67
2023-04-05T08:24:22.988Z,12.72
2023-04-05T08:25:23.450Z,12.78
2023-04-05T08:26:22.825Z,12.83
2023-04-05T08:27:23.258Z,12.87
2023-04-05T08:28:23.729Z,12.94
2023-04-05T08:29:23.353Z,13.01
2023-04-05T08:30:24.076Z,13.07
2023-04-05T08:31:23.010Z,13.13
2023-04-05T08:32:23.445Z,13.21
2023-04-05T08:33:23.684Z,13.26
2023-04-05T08:34:23.621Z,13.35
2023-04-05T08:35:23.185Z,13.40
2023-04-05T08:36:23.577Z,13.43
2023-04-05T08:37:23.011Z,13.48
2023-04-05T08:38:22.806Z,13.53
2023-04-05T08:39:23.577Z,13.57
2023-04-05T08:40:23.192Z,13.58
2023-04-05T08:41:23.210Z,13.64
2023-04-05T08:42:23.284Z,13.69
2023-04-05T08:43:23.277Z,13.71
2023-04-05T08:44:23.407Z,13.75
2023-04-05T08:45:23.476Z,13.77
2023-04-05T08:46:23.470Z,13.83
2023-04-05T08:47:23.316Z,13.85
2023-04-05T08:48:23.665Z,13.89
2023-04-05T08:49:23.363Z,13.96
2023-04-05T08:50:23.314Z,14.09
2023-04-05T08:51:28.442Z,14.10
2023-04-05T08:52:23.097Z,14.17
2023-04-05T08:53:23.358Z,14.19
2023-04-05T08:54:23.120Z,14.07
2023-04-05T08:55:23.221Z,13.96
2023-04-05T08:56:23.476Z,13.93
2023-04-05T08:57:23.849Z,13.95
2023-04-05T08:58:23.001Z,13.96
2023-04-05T08:59:23.221Z,14
2023-04-05T09:00:24.019Z,14.05
2023-04-05T09:01:23.678Z,14.02
2023-04-05T09:02:23.087Z,13.93
2023-04-05T09:03:23.645Z,13.91
2023-04-05T09:04:23.288Z,13.89
2023-04-05T09:05:23.584Z,13.86
2023-04-05T09:06:23.429Z,13.89
2023-04-05T09:07:31.499Z,13.88
2023-04-05T09:08:23.687Z,13.92
2023-04-05T09:09:23.078Z,14.01
2023-04-05T09:10:23.644Z,14.05
2023-04-05T09:11:23.207Z,14.09
2023-04-05T09:12:23.406Z,14.15
2023-04-05T09:13:23.834Z,14.17
2023-04-05T09:14:23.074Z,14.24
2023-04-05T09:15:23.314Z,14.22
2023-04-05T09:16:23.540Z,14.09
2023-04-05T09:17:23.248Z,13.99
2023-04-05T09:18:27.293Z,14.01
2023-04-05T09:19:22.929Z,14.02
2023-04-05T09:20:23.201Z,14.05
2023-04-05T09:21:23.249Z,14.02
2023-04-05T09:22:23.679Z,14.01
2023-04-05T09:23:23.108Z,14.06
2023-04-05T09:24:23.315Z,14.07
2023-04-05T09:25:23.112Z,14.04
2023-04-05T09:26:23.433Z,14.07
2023-04-05T09:27:23.138Z,14.17
2023-04-05T09:28:23.405Z,14.22
2023-04-05T09:29:23.230Z,14.19
2023-04-05T09:30:23.678Z,14.16
2023-04-05T09:31:22.768Z,14.17
2023-04-05T09:32:22.914Z,14.22
2023-04-05T09:33:23.009Z,14.28
2023-04-05T09:34:22.962Z,14.38
2023-04-05T09:35:23.244Z,14.47
2023-04-05T09:36:23.610Z,14.49
2023-04-05T09:37:23.288Z,14.61
2023-04-05T09:38:23.887Z,14.73
2023-04-05T09:39:23.422Z,14.68
2023-04-05T09:40:23.614Z,14.68
2023-04-05T09:41:23.122Z,14.85
2023-04-05T09:42:23.494Z,15.14
2023-04-05T09:43:22.906Z,15.12
2023-04-05T09:44:23.274Z,14.98
2023-04-05T09:45:23.845Z,14.90
2023-04-05T09:46:23.449Z,14.88
2023-04-05T09:47:23.837Z,14.88
2023-04-05T09:48:23.268Z,14.88
2023-04-05T09:49:23.735Z,14.89
2023-04-05T09:50:23.087Z,14.94
2023-04-05T09:51:23.822Z,14.97
2023-04-05T09:52:23.530Z,15.02
2023-04-05T09:53:23.335Z,15.04
2023-04-05T09:54:23.043Z,15.09
2023-04-05T09:55:23.706Z,15.06
2023-04-05T09:56:23.981Z,15.06
2023-04-05T09:57:23.628Z,15.06
2023-04-05T09:58:23.550Z,15.09
2023-04-05T09:59:23.026Z,15.17
2023-04-05T10:00:24.452Z,15.19
2023-04-05T10:01:23.395Z,15.13
2023-04-05T10:02:23.242Z,15.10
2023-04-05T10:03:23.255Z,15.06
2023-04-05T10:04:23.781Z,15.06
2023-04-05T10:05:23.420Z,15.12
2023-04-05T10:06:23.847Z,15.13
2023-04-05T10:07:23.837Z,15.13
2023-04-05T10:08:23.304Z,15.12
2023-04-05T10:09:23.558Z,15.14
2023-04-05T10:10:23.082Z,15.20
2023-04-05T10:11:23.907Z,15.24
2023-04-05T10:12:23.330Z,15.27
2023-04-05T10:13:23.443Z,15.27
2023-04-05T10:14:23.943Z,15.32
2023-04-05T10:15:23.650Z,15.34
2023-04-05T10:16:23.744Z,15.30
2023-04-05T10:17:23.327Z,15.23
2023-04-05T10:18:23.863Z,15.22
2023-04-05T10:19:23.112Z,15.28
2023-04-05T10:20:23.922Z,15.41
2023-04-05T10:21:23.080Z,15.40
2023-04-05T10:22:23.444Z,15.38
2023-04-05T10:23:23.345Z,15.35
2023-04-05T10:24:24.096Z,15.37
2023-04-05T10:25:23.178Z,15.35
2023-04-05T10:26:23.592Z,15.31
2023-04-05T10:27:23.847Z,15.28
2023-04-05T10:28:22.876Z,15.33
2023-04-05T10:29:23.669Z,15.44
2023-04-05T10:30:24.256Z,15.48
2023-04-05T10:31:36.343Z,15.48
2023-04-05T10:32:23.529Z,15.52
2023-04-05T10:33:23.152Z,15.59
2023-04-05T10:34:23.469Z,15.60
2023-04-05T10:35:23.310Z,15.57
2023-04-05T10:36:23.579Z,15.59
2023-04-05T10:37:23.737Z,15.63
2023-04-05T10:38:23.518Z,15.62
2023-04-05T10:39:23.814Z,15.63
2023-04-05T10:40:23.859Z,15.61
2023-04-05T10:41:23.019Z,15.75
2023-04-05T10:42:23.787Z,15.85
2023-04-05T10:43:23.092Z,15.97
2023-04-05T10:44:26.623Z,16.07
2023-04-05T10:45:23.802Z,16.14
2023-04-05T10:46:23.727Z,16.18
2023-04-05T10:47:24.095Z,16.18
2023-04-05T10:48:23.969Z,16.22
2023-04-05T10:49:24.030Z,16.18
2023-04-05T10:50:23.550Z,16.20
2023-04-05T10:51:23.191Z,16.06
2023-04-05T10:52:24.008Z,16.11
2023-04-05T10:53:23.456Z,16.24
2023-04-05T10:54:23.222Z,16.43
2023-04-05T10:55:23.899Z,16.51
2023-04-05T10:56:23.442Z,16.46
2023-04-05T10:57:23.151Z,16.71
2023-04-05T10:58:23.554Z,16.71
2023-04-05T10:59:23.875Z,16.61
2023-04-05T11:00:24.750Z,16.56
2023-04-05T11:01:24.251Z,16.81
2023-04-05T11:02:23.583Z,16.74
2023-04-05T11:03:23.366Z,16.69
2023-04-05T11:04:23.743Z,16.71
2023-04-05T11:05:23.922Z,16.62
2023-04-05T11:06:23.235Z,16.65
2023-04-05T11:07:23.602Z,16.64
2023-04-05T11:08:23.461Z,16.64
2023-04-05T11:09:23.001Z,16.68
2023-04-05T11:10:23.727Z,16.68
2023-04-05T11:11:23.228Z,16.76
2023-04-05T11:12:23.842Z,16.79
2023-04-05T11:13:23.290Z,16.80
2023-04-05T11:14:23.001Z,16.83
2023-04-05T11:15:23.365Z,16.83
2023-04-05T11:16:23.766Z,16.82
2023-04-05T11:17:23.713Z,16.88
2023-04-05T11:18:28.300Z,16.94
2023-04-05T11:19:23.429Z,16.94
2023-04-05T11:20:23.731Z,16.96
2023-04-05T11:21:23.402Z,16.99
2023-04-05T11:22:28.912Z,17.10
2023-04-05T11:23:23.773Z,17.12
2023-04-05T11:24:28.477Z,17.17
2023-04-05T11:25:23.405Z,17.21
2023-04-05T11:26:23.675Z,17.18
2023-04-05T11:27:23.404Z,17.13
2023-04-05T11:28:31.392Z,17.12
2023-04-05T11:29:23.119Z,17.12
2023-04-05T11:30:24.013Z,17.11
2023-04-05T11:31:23.327Z,17.04
2023-04-05T11:32:31.060Z,17.03
2023-04-05T11:33:23.563Z,17.10
2023-04-05T11:34:24.692Z,17.12
2023-04-05T11:35:23.993Z,17.12
2023-04-05T11:36:23.884Z,17.13
2023-04-05T11:37:23.511Z,17.10
2023-04-05T11:38:37.832Z,17.13
2023-04-05T11:39:23.142Z,17.04
2023-04-05T11:40:23.681Z,17.02
2023-04-05T11:41:22.921Z,17.04
2023-04-05T11:42:23.393Z,17.11
2023-04-05T11:43:23.381Z,17.10
2023-04-05T11:44:23.730Z,17.15
2023-04-05T11:45:23.226Z,17.10
2023-04-05T11:46:24.576Z,17.03
2023-04-05T11:47:23.779Z,16.95
2023-04-05T11:48:23.314Z,16.98
2023-04-05T11:49:23.480Z,16.94
2023-04-05T11:50:23.997Z,16.94
2023-04-05T11:51:24.537Z,16.85
2023-04-05T11:52:38.321Z,16.77
2023-04-05T11:53:24.025Z,16.81
2023-04-05T11:54:23.890Z,16.95
2023-04-05T11:55:23.232Z,17.02
2023-04-05T11:56:42.660Z,17.09
2023-04-05T11:57:23.592Z,17.19
2023-04-05T11:58:23.498Z,17.26
2023-04-05T11:59:22.833Z,17.31
2023-04-05T12:00:24.174Z,17.35
2023-04-05T12:01:23.510Z,17.40
2023-04-05T12:02:23.846Z,17.53
2023-04-05T12:03:23.222Z,17.64
2023-04-05T12:04:46.030Z,17.71
2023-04-05T12:05:22.784Z,17.80
2023-04-05T12:06:23.340Z,17.92
2023-04-05T12:07:23.978Z,17.97
2023-04-05T12:08:23.260Z,18.10
2023-04-05T12:09:23.670Z,18.21
2023-04-05T12:10:22.974Z,18.35
2023-04-05T12:11:23.253Z,18.45
2023-04-05T12:12:23.705Z,18.52
2023-04-05T12:13:23.260Z,18.63
2023-04-05T12:14:23.662Z,18.76
2023-04-05T12:15:23.398Z,18.89
2023-04-05T12:16:24.215Z,18.89
2023-04-05T12:17:24.223Z,18.91
2023-04-05T12:18:23.740Z,18.94
2023-04-05T12:19:22.789Z,18.93
2023-04-05T12:20:22.975Z,18.92
2023-04-05T12:21:23.349Z,18.95
2023-04-05T12:22:23.943Z,18.90
2023-04-05T12:23:23.137Z,18.86
2023-04-05T12:24:23.177Z,18.97
2023-04-05T12:25:23.900Z,18.98
2023-04-05T12:26:23.656Z,19.04
2023-04-05T12:27:23.505Z,18.97
2023-04-05T12:28:22.925Z,18.94
2023-04-05T12:29:23.569Z,18.91
2023-04-05T12:30:23.817Z,18.93
2023-04-05T12:31:23.553Z,18.87
2023-04-05T12:32:23.805Z,18.86
2023-04-05T12:33:23.909Z,18.85
2023-04-05T12:34:23.192Z,18.85
2023-04-05T12:35:23.443Z,18.83
2023-04-05T12:36:23.435Z,18.80
2023-04-05T12:37:23.686Z,18.96
2023-04-05T12:38:23.377Z,19.14
2023-04-05T12:39:24.208Z,19.27
2023-04-05T12:40:23.276Z,19.40
2023-04-05T12:41:23.581Z,19.41
2023-04-05T12:42:22.965Z,19.36
2023-04-05T12:43:23.638Z,19.29
2023-04-05T12:44:23.251Z,19.26
2023-04-05T12:45:24.182Z,19.25
2023-04-05T12:46:23.538Z,19.17
2023-04-05T12:47:23.342Z,19.06
2023-04-05T12:48:23.416Z,19.13
2023-04-05T12:49:23.864Z,19.23
2023-04-05T12:50:23.537Z,19.34
2023-04-05T12:51:23.886Z,19.42
2023-04-05T12:52:23.709Z,19.51
2023-04-05T12:53:23.141Z,19.57
2023-04-05T12:54:23.103Z,19.59
2023-04-05T12:55:23.560Z,19.66
2023-04-05T12:56:23.932Z,19.70
2023-04-05T12:57:23.505Z,19.72